createdAt,value
2019-02-04T00:01:27.653Z,1.20
2019-02-04T00:03:55.319Z,1.30
2019-02-04T00:06:22.627Z,1.20
2019-02-04T00:08:50.610Z,1.20
2019-02-04T00:11:18.191Z,1.20
2019-02-04T00:13:45.377Z,1.10
2019-02-04T00:16:12.800Z,1.10
2019-02-04T00:18:40.063Z,1.00
2019-02-04T00:21:07.592Z,1.00
2019-02-04T00:23:34.728Z,1.00
2019-02-04T00:26:01.825Z,0.90
2019-02-04T00:28:29.075Z,1.00
2019-02-04T00:30:56.738Z,1.00
2019-02-04T00:33:23.818Z,1.00
2019-02-04T00:35:51.322Z,1.10
2019-02-04T00:38:18.455Z,1.10
2019-02-04T00:40:45.731Z,1.00
2019-02-04T00:43:12.755Z,1.00
2019-02-04T00:45:39.842Z,1.00
2019-02-04T00:48:07.472Z,1.10
2019-02-04T00:50:35.191Z,1.10
2019-02-04T00:53:02.327Z,1.10
2019-02-04T00:55:29.390Z,1.00
2019-02-04T00:57:56.985Z,1.10
2019-02-04T01:00:26.837Z,1.00
2019-02-04T01:02:54.830Z,1.00
2019-02-04T01:05:22.274Z,1.00
2019-02-04T01:07:49.632Z,1.00
2019-02-04T01:10:19.435Z,1.00
2019-02-04T01:12:46.742Z,0.90
2019-02-04T01:15:14.032Z,0.90
2019-02-04T01:17:41.266Z,0.90
2019-02-04T01:20:09.715Z,0.90
2019-02-04T01:22:36.879Z,0.80
2019-02-04T01:25:05.108Z,0.80
2019-02-04T01:27:32.215Z,0.80
2019-02-04T01:29:59.780Z,0.80
2019-02-04T01:32:27.248Z,0.80
2019-02-04T01:34:55.012Z,0.80
2019-02-04T01:37:21.999Z,0.80
2019-02-04T01:39:49.111Z,0.80
2019-02-04T01:42:16.692Z,0.90
2019-02-04T01:44:44.763Z,0.80
2019-02-04T01:47:14.800Z,0.80
2019-02-04T01:49:40.859Z,0.80
2019-02-04T01:52:08.060Z,0.80
2019-02-04T01:54:35.470Z,0.80
2019-02-04T01:57:03.205Z,0.70
2019-02-04T01:59:30.967Z,0.80
2019-02-04T02:01:58.127Z,0.90
2019-02-04T02:04:25.306Z,0.90
2019-02-04T02:06:54.248Z,0.90
2019-02-04T02:09:23.358Z,0.90
2019-02-04T02:11:50.693Z,0.90
2019-02-04T02:14:18.172Z,0.90
2019-02-04T02:16:45.874Z,0.90
2019-02-04T02:19:13.255Z,0.90
2019-02-04T02:21:40.431Z,0.90
2019-02-04T02:24:07.479Z,0.90
2019-02-04T02:26:34.966Z,0.80
2019-02-04T02:29:02.457Z,0.80
2019-02-04T02:31:29.870Z,0.80
2019-02-04T02:33:57.002Z,0.80
2019-02-04T02:36:24.774Z,0.80
2019-02-04T02:38:51.942Z,0.80
2019-02-04T02:41:19.057Z,0.80
2019-02-04T02:43:46.139Z,0.80
2019-02-04T02:46:13.254Z,0.80
2019-02-04T02:48:40.501Z,0.70
2019-02-04T02:51:07.920Z,0.70
2019-02-04T02:53:35.083Z,0.80
2019-02-04T02:56:02.112Z,0.70
2019-02-04T02:58:29.485Z,0.70
2019-02-04T03:00:56.601Z,0.70
2019-02-04T03:03:23.655Z,0.70
2019-02-04T03:05:50.722Z,0.70
2019-02-04T03:08:17.738Z,0.70
2019-02-04T03:10:44.808Z,0.70
2019-02-04T03:13:12.283Z,0.60
2019-02-04T03:15:39.647Z,0.60
2019-02-04T03:18:06.797Z,0.60
2019-02-04T03:20:34.127Z,0.60
2019-02-04T03:23:01.339Z,0.50
2019-02-04T03:25:28.806Z,0.50
2019-02-04T03:27:55.914Z,0.50
2019-02-04T03:30:25.673Z,0.40
2019-02-04T03:32:54.013Z,0.30
2019-02-04T03:35:21.384Z,0.40
2019-02-04T03:37:48.769Z,0.30
2019-02-04T03:40:19.285Z,0.30
2019-02-04T03:42:46.525Z,0.40
2019-02-04T03:45:13.819Z,0.40
2019-02-04T03:47:42.371Z,0.30
2019-02-04T03:50:09.759Z,0.30
2019-02-04T03:52:36.969Z,0.30
2019-02-04T03:55:06.445Z,0.30
2019-02-04T03:57:33.806Z,0.30
2019-02-04T04:00:01.660Z,0.30
2019-02-04T04:02:28.977Z,0.30
2019-02-04T04:04:56.620Z,0.40
2019-02-04T04:07:24.112Z,0.40
2019-02-04T04:09:51.621Z,0.40
2019-02-04T04:12:19.644Z,0.40
2019-02-04T04:14:47.041Z,0.40
2019-02-04T04:17:14.227Z,0.40
2019-02-04T04:19:41.876Z,0.50
2019-02-04T04:22:09.133Z,0.50
2019-02-04T04:24:36.207Z,0.50
2019-02-04T04:27:03.441Z,0.50
2019-02-04T04:29:30.818Z,0.60
2019-02-04T04:31:58.214Z,0.60
2019-02-04T04:34:25.580Z,0.70
2019-02-04T04:36:53.262Z,0.70
2019-02-04T04:39:20.788Z,0.80
2019-02-04T04:41:47.899Z,1.00
2019-02-04T04:44:15.323Z,1.00
2019-02-04T04:46:43.219Z,1.10
2019-02-04T04:49:10.546Z,1.20
2019-02-04T04:51:37.696Z,1.30
2019-02-04T04:54:05.831Z,1.40
2019-02-04T04:56:33.191Z,1.40
2019-02-04T04:59:00.990Z,1.50
2019-02-04T05:01:29.434Z,1.40
2019-02-04T05:03:56.435Z,1.50
2019-02-04T05:06:23.897Z,1.50
2019-02-04T05:08:51.363Z,1.60
2019-02-04T05:11:18.378Z,1.70
2019-02-04T05:13:45.528Z,1.90
2019-02-04T05:16:12.727Z,1.80
2019-02-04T05:18:39.982Z,1.80
2019-02-04T05:21:07.430Z,1.80
2019-02-04T05:23:34.506Z,1.80
2019-02-04T05:26:02.032Z,1.90
2019-02-04T05:28:29.644Z,2.00
2019-02-04T05:30:56.915Z,2.00
2019-02-04T05:33:24.106Z,2.10
2019-02-04T05:35:51.630Z,2.20
2019-02-04T05:38:19.140Z,2.20
2019-02-04T05:40:46.642Z,2.10
2019-02-04T05:43:14.390Z,2.10
2019-02-04T05:45:41.570Z,2.10
2019-02-04T05:48:08.645Z,2.00
2019-02-04T05:50:38.505Z,2.10
2019-02-04T05:53:06.172Z,2.10
2019-02-04T05:55:33.254Z,2.00
2019-02-04T05:58:01.613Z,2.00
2019-02-04T06:00:34.164Z,2.00
2019-02-04T06:03:01.519Z,2.00
2019-02-04T06:05:28.729Z,2.00
2019-02-04T06:07:56.770Z,2.10
2019-02-04T06:10:24.009Z,2.10
2019-02-04T06:12:51.069Z,2.10
2019-02-04T06:15:18.517Z,2.10
2019-02-04T06:17:45.639Z,2.10
2019-02-04T06:20:15.083Z,2.30
2019-02-04T06:22:42.741Z,2.50
2019-02-04T06:25:10.464Z,2.40
2019-02-04T06:27:38.477Z,2.40
2019-02-04T06:30:07.034Z,2.30
2019-02-04T06:32:34.664Z,2.30
2019-02-04T06:35:02.666Z,2.40
2019-02-04T06:37:30.969Z,2.20
2019-02-04T06:39:58.411Z,2.20
2019-02-04T06:42:25.989Z,2.20
2019-02-04T06:44:53.114Z,2.20
2019-02-04T06:47:20.460Z,2.20
2019-02-04T06:49:47.500Z,2.20
2019-02-04T06:52:14.712Z,2.30
2019-02-04T06:54:41.952Z,2.30
2019-02-04T06:57:08.979Z,2.20
2019-02-04T06:59:36.268Z,2.10
2019-02-04T07:02:04.198Z,2.10
2019-02-04T07:04:31.475Z,2.20
2019-02-04T07:07:02.783Z,2.10
2019-02-04T07:09:30.161Z,2.10
2019-02-04T07:11:57.392Z,2.20
2019-02-04T07:14:24.477Z,2.30
2019-02-04T07:16:51.642Z,2.30
2019-02-04T07:19:24.395Z,2.30
2019-02-04T07:21:49.163Z,2.30
2019-02-04T07:24:17.172Z,2.50
2019-02-04T07:26:44.965Z,2.30
2019-02-04T07:29:12.991Z,2.30
2019-02-04T07:31:40.549Z,2.40
2019-02-04T07:34:08.930Z,2.40
2019-02-04T07:36:36.595Z,2.30
2019-02-04T07:39:07.058Z,2.30
2019-02-04T07:41:34.300Z,2.20
2019-02-04T07:44:01.740Z,2.20
2019-02-04T07:46:29.124Z,2.20
2019-02-04T07:48:56.581Z,2.20
2019-02-04T07:51:23.974Z,2.20
2019-02-04T07:53:51.317Z,2.20
2019-02-04T07:56:18.996Z,2.20
2019-02-04T07:58:46.745Z,2.30
2019-02-04T08:01:14.341Z,2.10
2019-02-04T08:03:42.132Z,2.00
2019-02-04T08:06:09.631Z,2.10
2019-02-04T08:08:37.248Z,2.10
2019-02-04T08:11:04.546Z,2.10
2019-02-04T08:13:32.785Z,2.10
2019-02-04T08:16:00.230Z,2.00
2019-02-04T08:18:27.587Z,2.00
2019-02-04T08:20:54.779Z,2.10
2019-02-04T08:23:22.253Z,2.20
2019-02-04T08:25:49.472Z,2.30
2019-02-04T08:28:16.821Z,2.30
2019-02-04T08:30:44.016Z,2.40
2019-02-04T08:33:11.204Z,2.30
2019-02-04T08:35:38.779Z,2.40
2019-02-04T08:38:06.647Z,2.40
2019-02-04T08:40:34.468Z,2.40
2019-02-04T08:43:01.981Z,2.50
2019-02-04T08:45:29.137Z,2.50
2019-02-04T08:47:56.817Z,2.40
2019-02-04T08:50:24.707Z,2.40
2019-02-04T08:52:52.490Z,2.50
2019-02-04T08:55:21.151Z,2.50
2019-02-04T08:57:50.043Z,2.60
2019-02-04T09:00:18.748Z,2.60
2019-02-04T09:02:46.122Z,2.50
2019-02-04T09:05:13.814Z,2.60
2019-02-04T09:07:41.080Z,2.70
2019-02-04T09:10:09.887Z,2.80
2019-02-04T09:12:37.018Z,2.80
2019-02-04T09:15:06.993Z,2.80
2019-02-04T09:17:34.107Z,2.90
2019-02-04T09:20:09.843Z,3.10
2019-02-04T09:22:30.701Z,2.90
2019-02-04T09:24:58.118Z,3.00
2019-02-04T09:27:25.388Z,3.00
2019-02-04T09:29:52.458Z,3.10
2019-02-04T09:32:19.458Z,3.10
2019-02-04T09:34:46.844Z,3.20
2019-02-04T09:37:14.150Z,3.10
2019-02-04T09:39:41.346Z,3.10
2019-02-04T09:42:08.663Z,3.30
2019-02-04T09:44:35.954Z,3.30
2019-02-04T09:47:03.310Z,3.30
2019-02-04T09:49:30.403Z,3.20
2019-02-04T09:51:58.017Z,3.30
2019-02-04T09:54:25.259Z,3.30
2019-02-04T09:56:52.565Z,3.30
2019-02-04T09:59:19.671Z,3.50
2019-02-04T10:01:47.178Z,3.50
2019-02-04T10:04:14.404Z,3.50
2019-02-04T10:06:49.532Z,3.50
2019-02-04T10:09:16.600Z,3.50
2019-02-04T10:11:43.839Z,3.50
2019-02-04T10:14:11.850Z,3.70
2019-02-04T10:16:38.988Z,3.70
2019-02-04T10:19:06.408Z,3.80
2019-02-04T10:21:33.863Z,3.80
2019-02-04T10:24:01.374Z,3.80
2019-02-04T10:26:30.081Z,3.90
2019-02-04T10:28:57.659Z,3.90
2019-02-04T10:31:24.921Z,3.90
2019-02-04T10:33:52.620Z,3.90
2019-02-04T10:36:21.193Z,3.90
2019-02-04T10:38:48.817Z,3.90
2019-02-04T10:41:16.208Z,3.90
2019-02-04T10:43:43.303Z,3.90
2019-02-04T10:46:10.447Z,4.00
2019-02-04T10:48:37.843Z,4.00
2019-02-04T10:51:05.475Z,4.10
2019-02-04T10:53:33.193Z,4.20
2019-02-04T10:56:00.345Z,4.30
2019-02-04T10:58:27.942Z,4.40
2019-02-04T11:00:58.375Z,4.50
2019-02-04T11:03:25.608Z,4.50
2019-02-04T11:05:53.069Z,4.70
2019-02-04T11:08:20.405Z,4.60
2019-02-04T11:10:47.480Z,4.60
2019-02-04T11:13:16.774Z,4.60
2019-02-04T11:15:45.466Z,4.60
2019-02-04T11:18:14.810Z,4.60
2019-02-04T11:20:42.777Z,4.50
2019-02-04T11:23:10.222Z,4.60
2019-02-04T11:25:37.585Z,4.70
2019-02-04T11:28:06.809Z,4.80
2019-02-04T11:30:40.456Z,4.70
2019-02-04T11:33:08.285Z,4.70
2019-02-04T11:35:35.491Z,4.60
2019-02-04T11:38:02.980Z,4.70
2019-02-04T11:40:33.423Z,4.70
2019-02-04T11:43:00.589Z,4.70
2019-02-04T11:45:28.781Z,4.90
2019-02-04T11:47:56.358Z,4.80
2019-02-04T11:50:23.965Z,4.90
2019-02-04T11:52:51.346Z,4.90
2019-02-04T11:55:18.644Z,4.90
2019-02-04T11:57:46.392Z,4.70
2019-02-04T12:00:16.966Z,4.60
2019-02-04T12:02:44.413Z,4.60
2019-02-04T12:05:14.985Z,4.60
2019-02-04T12:07:42.116Z,4.70
2019-02-04T12:10:17.226Z,4.80
2019-02-04T12:12:45.153Z,4.90
2019-02-04T12:15:14.626Z,4.90
2019-02-04T12:17:42.114Z,4.80
2019-02-04T12:20:11.927Z,4.90
2019-02-04T12:22:39.123Z,5.00
2019-02-04T12:25:10.626Z,5.00
2019-02-04T12:27:37.714Z,5.10
2019-02-04T12:30:09.677Z,5.10
2019-02-04T12:32:38.765Z,5.10
2019-02-04T12:35:08.127Z,5.10
2019-02-04T12:37:43.769Z,5.10
2019-02-04T12:40:13.230Z,5.10
2019-02-04T12:42:40.963Z,5.20
2019-02-04T12:45:16.051Z,5.20
2019-02-04T12:47:43.223Z,5.30
2019-02-04T12:50:10.866Z,5.30
2019-02-04T12:52:38.157Z,5.30
2019-02-04T12:55:07.009Z,5.30
2019-02-04T12:57:34.257Z,5.20
2019-02-04T13:00:01.889Z,5.20
2019-02-04T13:02:29.251Z,5.30
2019-02-04T13:04:56.451Z,5.30
2019-02-04T13:07:23.558Z,5.20
2019-02-04T13:09:51.154Z,5.20
2019-02-04T13:12:18.262Z,5.10
2019-02-04T13:14:45.377Z,5.10
2019-02-04T13:17:13.101Z,5.20
2019-02-04T13:19:40.735Z,5.20
2019-02-04T13:22:07.990Z,5.30
2019-02-04T13:24:38.487Z,5.40
2019-02-04T13:27:06.038Z,5.30
2019-02-04T13:29:33.191Z,5.30
2019-02-04T13:32:00.282Z,5.20
2019-02-04T13:34:28.009Z,5.30
2019-02-04T13:36:55.049Z,5.40
2019-02-04T13:39:22.091Z,5.30
2019-02-04T13:41:49.408Z,5.20
2019-02-04T13:44:16.690Z,5.10
2019-02-04T13:46:43.902Z,5.10
2019-02-04T13:49:11.141Z,5.10
2019-02-04T13:51:38.978Z,5.10
2019-02-04T13:54:06.371Z,4.90
2019-02-04T13:56:33.561Z,4.90
2019-02-04T13:59:00.914Z,4.90
2019-02-04T14:01:28.530Z,4.90
2019-02-04T14:03:55.643Z,4.90
2019-02-04T14:06:23.226Z,4.90
2019-02-04T14:08:50.750Z,5.00
2019-02-04T14:11:17.911Z,5.00
2019-02-04T14:13:45.006Z,5.10
2019-02-04T14:16:13.244Z,5.10
2019-02-04T14:18:40.704Z,5.00
2019-02-04T14:21:08.808Z,5.00
2019-02-04T14:23:36.609Z,5.00
2019-02-04T14:26:04.274Z,4.80
2019-02-04T14:28:31.685Z,4.90
2019-02-04T14:30:59.351Z,5.10
2019-02-04T14:33:26.642Z,5.00
2019-02-04T14:35:53.817Z,5.10
2019-02-04T14:38:21.068Z,5.00
2019-02-04T14:40:48.627Z,4.90
2019-02-04T14:43:20.452Z,5.00
2019-02-04T14:46:10.689Z,5.00
2019-02-04T14:49:32.527Z,4.90
2019-02-04T14:52:47.393Z,4.80
2019-02-04T14:55:46.275Z,4.90
2019-02-04T14:58:28.031Z,4.80
2019-02-04T15:01:22.591Z,4.80
2019-02-04T15:04:05.610Z,4.80
2019-02-04T15:06:57.745Z,4.80
2019-02-04T15:10:25.067Z,4.80
2019-02-04T15:13:29.869Z,4.70
2019-02-04T15:16:27.045Z,4.80
2019-02-04T15:19:24.350Z,4.90
2019-02-04T15:22:03.977Z,4.80
2019-02-04T15:24:59.912Z,4.90
2019-02-04T15:28:03.494Z,5.10
2019-02-04T15:31:16.051Z,4.90
2019-02-04T15:34:01.508Z,4.70
2019-02-04T15:37:03.259Z,4.70
2019-02-04T15:39:59.463Z,4.70
2019-02-04T15:43:03.838Z,4.80
2019-02-04T15:45:40.719Z,4.80
2019-02-04T15:48:22.391Z,4.70
2019-02-04T15:51:06.510Z,4.80
2019-02-04T15:53:33.931Z,4.80
2019-02-04T15:56:01.624Z,4.80
2019-02-04T15:58:29.082Z,4.80
2019-02-04T16:00:56.304Z,4.70
2019-02-04T16:03:23.651Z,4.70
2019-02-04T16:05:51.078Z,4.60
2019-02-04T16:08:18.167Z,4.60
2019-02-04T16:10:45.511Z,4.60
2019-02-04T16:13:12.661Z,4.60
2019-02-04T16:15:42.415Z,4.60
2019-02-04T16:18:10.000Z,4.70
2019-02-04T16:20:37.319Z,4.70
2019-02-04T16:23:05.099Z,4.70
2019-02-04T16:25:32.699Z,4.70
2019-02-04T16:27:59.930Z,4.70
2019-02-04T16:30:28.800Z,4.80
2019-02-04T16:32:56.585Z,4.80
2019-02-04T16:35:23.844Z,4.80
2019-02-04T16:37:52.052Z,4.70
2019-02-04T16:40:20.510Z,4.70
2019-02-04T16:42:48.153Z,4.80
2019-02-04T16:45:18.397Z,4.80
2019-02-04T16:47:46.544Z,4.80
2019-02-04T16:50:19.247Z,4.90
2019-02-04T16:52:48.193Z,4.90
2019-02-04T16:55:15.723Z,5.00
2019-02-04T16:57:43.124Z,5.00
2019-02-04T17:00:13.271Z,4.90
2019-02-04T17:02:40.453Z,5.00
2019-02-04T17:05:09.238Z,4.90
2019-02-04T17:07:36.610Z,4.80
2019-02-04T17:10:07.180Z,4.80
2019-02-04T17:12:34.782Z,4.80
2019-02-04T17:15:02.044Z,4.80
2019-02-04T17:17:30.423Z,4.80
2019-02-04T17:19:59.073Z,4.80
2019-02-04T17:22:27.589Z,4.90
2019-02-04T17:24:54.821Z,4.90
2019-02-04T17:27:22.010Z,4.90
2019-02-04T17:29:49.127Z,4.90
2019-02-04T17:32:16.166Z,4.90
2019-02-04T17:34:43.340Z,4.90
2019-02-04T17:37:11.394Z,4.90
2019-02-04T17:39:38.813Z,4.90
2019-02-04T17:42:05.937Z,4.90
2019-02-04T17:44:33.483Z,5.00
2019-02-04T17:47:00.595Z,5.00
2019-02-04T17:49:28.105Z,4.90
2019-02-04T17:51:55.252Z,4.90
2019-02-04T17:54:22.876Z,4.90
2019-02-04T17:56:50.568Z,4.90
2019-02-04T17:59:18.126Z,4.90
2019-02-04T18:01:45.432Z,4.80
2019-02-04T18:04:13.138Z,4.80
2019-02-04T18:06:40.490Z,4.90
2019-02-04T18:09:08.628Z,5.10
2019-02-04T18:11:36.174Z,5.00
2019-02-04T18:14:04.141Z,4.90
2019-02-04T18:16:31.550Z,5.00
2019-02-04T18:19:00.180Z,5.00
2019-02-04T18:21:27.993Z,4.90
2019-02-04T18:23:55.094Z,4.90
2019-02-04T18:26:22.845Z,5.00
2019-02-04T18:28:50.968Z,5.00
2019-02-04T18:31:18.464Z,4.90
2019-02-04T18:33:46.291Z,4.90
2019-02-04T18:36:13.852Z,4.90
2019-02-04T18:38:41.406Z,4.90
2019-02-04T18:41:08.743Z,4.80
2019-02-04T18:43:36.868Z,4.90
2019-02-04T18:46:04.598Z,5.00
2019-02-04T18:48:32.253Z,5.00
2019-02-04T18:50:59.585Z,4.80
2019-02-04T18:53:26.708Z,4.80
2019-02-04T18:55:54.111Z,4.70
2019-02-04T18:58:21.226Z,4.70
2019-02-04T19:00:48.764Z,4.70
2019-02-04T19:03:17.555Z,4.70
2019-02-04T19:05:45.061Z,4.80
2019-02-04T19:08:12.670Z,4.80
2019-02-04T19:10:40.161Z,4.80
2019-02-04T19:13:07.594Z,4.80
2019-02-04T19:15:34.966Z,4.70
2019-02-04T19:18:05.823Z,4.70
2019-02-04T19:20:33.695Z,4.70
2019-02-04T19:23:01.255Z,4.70
2019-02-04T19:25:28.711Z,4.60
2019-02-04T19:27:56.243Z,4.60
2019-02-04T19:30:45.025Z,4.60
2019-02-04T19:33:12.615Z,4.50
2019-02-04T19:35:41.041Z,4.60
2019-02-04T19:38:08.992Z,4.60
2019-02-04T19:40:37.305Z,4.60
2019-02-04T19:43:04.941Z,4.50
2019-02-04T19:45:32.833Z,4.60
2019-02-04T19:48:03.131Z,4.60
2019-02-04T19:50:30.476Z,4.50
2019-02-04T19:52:57.995Z,4.60
2019-02-04T19:55:26.616Z,4.60
2019-02-04T19:57:55.334Z,4.60
2019-02-04T20:00:23.324Z,4.60
2019-02-04T20:02:50.778Z,4.70
2019-02-04T20:05:19.407Z,4.60
2019-02-04T20:07:47.023Z,4.60
2019-02-04T20:10:17.140Z,4.60
2019-02-04T20:12:44.543Z,4.60
2019-02-04T20:15:15.475Z,4.60
2019-02-04T20:17:43.166Z,4.70
2019-02-04T20:20:11.877Z,4.60
2019-02-04T20:22:39.958Z,4.70
2019-02-04T20:25:11.255Z,4.60
2019-02-04T20:27:39.344Z,4.60
2019-02-04T20:30:12.448Z,4.60
2019-02-04T20:32:39.948Z,4.60
2019-02-04T20:35:08.536Z,4.60
2019-02-04T20:37:36.884Z,4.60
2019-02-04T20:40:06.294Z,4.60
2019-02-04T20:42:34.901Z,4.60
2019-02-04T20:45:03.162Z,4.60
2019-02-04T20:47:31.452Z,4.60
2019-02-04T20:49:59.886Z,4.60
2019-02-04T20:52:27.569Z,4.60
2019-02-04T20:54:54.743Z,4.50
2019-02-04T20:57:23.075Z,4.60
2019-02-04T20:59:50.236Z,4.60
2019-02-04T21:02:17.319Z,4.50
2019-02-04T21:04:46.951Z,4.50
2019-02-04T21:07:14.831Z,4.40
2019-02-04T21:09:43.053Z,4.50
2019-02-04T21:12:10.592Z,4.50
2019-02-04T21:14:39.571Z,4.50
2019-02-04T21:17:07.085Z,4.50
2019-02-04T21:19:34.226Z,4.40
2019-02-04T21:22:01.542Z,4.40
2019-02-04T21:24:29.131Z,4.40
2019-02-04T21:26:56.865Z,4.40
2019-02-04T21:29:25.299Z,4.40
2019-02-04T21:31:52.607Z,4.40
2019-02-04T21:34:19.817Z,4.40
2019-02-04T21:36:47.132Z,4.30
2019-02-04T21:39:14.463Z,4.30
2019-02-04T21:41:41.829Z,4.30
2019-02-04T21:44:10.067Z,4.30
2019-02-04T21:46:37.394Z,4.30
2019-02-04T21:49:04.862Z,4.20
2019-02-04T21:51:32.406Z,4.30
2019-02-04T21:54:00.131Z,4.30
2019-02-04T21:56:27.422Z,4.40
2019-02-04T21:58:54.474Z,4.30
2019-02-04T22:01:21.839Z,4.30
2019-02-04T22:03:49.089Z,4.20
2019-02-04T22:06:16.235Z,4.20
2019-02-04T22:08:43.435Z,4.20
2019-02-04T22:11:11.130Z,4.20
2019-02-04T22:13:38.363Z,4.30
2019-02-04T22:16:05.579Z,4.40
2019-02-04T22:18:33.717Z,4.30
2019-02-04T22:21:01.427Z,4.30
2019-02-04T22:23:29.415Z,4.30
2019-02-04T22:26:00.683Z,4.30
2019-02-04T22:28:27.931Z,4.30
2019-02-04T22:30:55.501Z,4.20
2019-02-04T22:33:22.811Z,4.20
2019-02-04T22:35:51.333Z,4.20
2019-02-04T22:38:18.798Z,4.30
2019-02-04T22:40:46.098Z,4.30
2019-02-04T22:43:14.552Z,4.30
2019-02-04T22:45:42.404Z,4.30
2019-02-04T22:48:09.854Z,4.30
2019-02-04T22:50:37.066Z,4.20
2019-02-04T22:53:04.566Z,4.20
2019-02-04T22:55:32.877Z,4.20
2019-02-04T22:58:00.135Z,4.10
2019-02-04T23:00:42.191Z,4.10
2019-02-04T23:03:09.722Z,4.10
2019-02-04T23:05:37.054Z,4.10
2019-02-04T23:08:05.927Z,4.00
2019-02-04T23:10:33.485Z,4.00
2019-02-04T23:13:00.946Z,4.00
2019-02-04T23:15:28.198Z,3.90
2019-02-04T23:17:56.235Z,3.90
2019-02-04T23:20:23.561Z,3.90
2019-02-04T23:22:50.645Z,3.80
2019-02-04T23:25:17.990Z,3.80
2019-02-04T23:27:45.554Z,3.70
2019-02-04T23:30:13.171Z,3.70
2019-02-04T23:32:41.288Z,3.70
2019-02-04T23:35:09.451Z,3.70
2019-02-04T23:37:37.022Z,3.70
2019-02-04T23:40:04.822Z,3.60
2019-02-04T23:42:31.871Z,3.50
2019-02-04T23:44:59.116Z,3.40
2019-02-04T23:47:26.853Z,3.50
2019-02-04T23:49:54.078Z,3.60
2019-02-04T23:52:21.183Z,3.60
2019-02-04T23:54:48.866Z,3.60
2019-02-04T23:57:16.518Z,3.70
2019-02-04T23:59:43.667Z,3.60
